TimeCDT,TemperatureF,Dew PointF,Humidity,Sea Level PressureIn,VisibilityMPH,Wind Direction,Wind SpeedMPH,Gust SpeedMPH,PrecipitationIn,Events,Conditions,WindDirDegrees,DateUTC
12:52 AM,57.0,37.9,49,29.92,10.0,SE,3.5,-,N/A,,Clear,140,2012-09-30 05:52:00
1:52 AM,55.9,37.9,51,29.92,10.0,NNW,4.6,-,N/A,,Clear,330,2012-09-30 06:52:00
2:52 AM,55.9,39.0,53,29.93,10.0,WSW,3.5,-,N/A,,Clear,250,2012-09-30 07:52:00
3:52 AM,51.1,37.9,61,29.91,10.0,Calm,Calm,-,N/A,,Clear,0,2012-09-30 08:52:00
4:52 AM,52.0,37.9,59,29.91,10.0,Calm,Calm,-,N/A,,Clear,0,2012-09-30 09:52:00
5:52 AM,45.0,36.0,71,29.93,10.0,Calm,Calm,-,N/A,,Clear,0,2012-09-30 10:52:00
6:52 AM,46.9,37.9,71,29.94,10.0,West,3.5,-,N/A,,Clear,270,2012-09-30 11:52:00
7:52 AM,48.9,39.9,71,29.96,10.0,West,3.5,-,N/A,,Clear,260,2012-09-30 12:52:00
8:52 AM,53.1,39.9,61,29.98,10.0,West,4.6,-,N/A,,Clear,260,2012-09-30 13:52:00
9:52 AM,59.0,39.9,49,29.99,10.0,West,6.9,-,N/A,,Clear,280,2012-09-30 14:52:00
10:52 AM,66.0,43.0,43,29.98,10.0,NW,8.1,-,N/A,,Scattered Clouds,310,2012-09-30 15:52:00
11:52 AM,68.0,44.1,42,29.97,10.0,NW,9.2,-,N/A,,Clear,310,2012-09-30 16:52:00
12:52 PM,72.0,46.0,40,29.97,10.0,NNW,5.8,-,N/A,,Clear,340,2012-09-30 17:52:00
1:52 PM,78.1,45.0,31,29.94,10.0,Variable,5.8,-,N/A,,Clear,0,2012-09-30 18:52:00
2:52 PM,78.1,42.1,28,29.94,10.0,NW,16.1,-,N/A,,Partly Cloudy,320,2012-09-30 19:52:00
3:52 PM,75.9,44.1,32,29.96,10.0,NW,13.8,-,N/A,,Mostly Cloudy,310,2012-09-30 20:52:00
4:52 PM,73.9,44.1,34,29.97,10.0,NW,10.4,-,0.00,,Overcast,320,2012-09-30 21:52:00
5:52 PM,73.0,41.0,31,29.98,10.0,NNW,9.2,-,N/A,,Mostly Cloudy,330,2012-09-30 22:52:00
6:52 PM,70.0,39.9,33,29.99,10.0,NW,5.8,-,N/A,,Scattered Clouds,320,2012-09-30 23:52:00
7:52 PM,69.1,39.9,35,30.01,10.0,North,12.7,-,0.00,,Partly Cloudy,350,2012-10-01 00:52:00
8:52 PM,64.9,39.0,39,30.06,10.0,NNW,12.7,23.0,N/A,,Clear,340,2012-10-01 01:52:00
9:52 PM,63.0,-9999,N/A,30.10,10.0,NNW,11.5,25.3,0.00,,Overcast,340,2012-10-01 02:52:00
10:52 PM,57.0,-9999,N/A,30.09,10.0,NNW,12.7,-,0.01,,Overcast,340,2012-10-01 03:52:00
11:52 PM,55.0,-9999,N/A,30.12,10.0,NNW,12.7,-,N/A,,Mostly Cloudy,330,2012-10-01 04:52:00